Time;durP1;ratioP1;P1;durP2;ratioP2;P2;SDS_P1;SDS_P2;PMS_P1;PMS_P2;Temp;Humidity;BMP_temperature;BMP_pressure;BME280_temperature;BME280_humidity;BME280_pressure;Samples;Min_cycle;Max_cycle;Signal;HPM_P1;HPM_P2
2023/10/02 00:03:39;;;;;;;5.13;2.50;;;;;;;;;;4995723;28;20041;-70
2023/10/02 00:06:10;;;;;;;4.45;2.45;;;;;;;;;;4995178;28;20026;-70
2023/10/02 00:08:41;;;;;;;3.15;2.28;;;;;;;;;;4976854;28;20114;-69
2023/10/02 07:20:42;;;;;;;4.93;2.30;;;;;;;;;;5983175;23;20041;-68
2023/10/02 07:23:19;;;;;;;2.38;1.88;;;;;;;;;;4954132;28;20055;-68
2023/10/02 07:25:50;;;;;;;3.08;2.17;;;;;;;;;;4958900;28;20057;-67
2023/10/02 07:28:20;;;;;;;2.55;1.80;;;;;;;;;;4958867;29;20106;-67
2023/10/02 07:30:46;;;;;;;3.72;2.00;;;;;;;;;;4958806;29;20487;-68
2023/10/02 07:33:13;;;;;;;2.75;1.98;;;;;;;;;;4958768;28;20138;-68
2023/10/02 07:35:39;;;;;;;3.35;2.45;;;;;;;;;;4958979;28;20042;-70
2023/10/02 07:38:08;;;;;;;3.08;2.00;;;;;;;;;;4958942;29;20027;-68
2023/10/02 07:40:48;;;;;;;3.40;2.08;;;;;;;;;;4958672;28;20365;-69
2023/10/02 07:43:19;;;;;;;;;;;;;;;;;;4959037;29;20043;-69
2023/10/02 07:46:01;;;;;;;4.70;2.10;;;;;;;;;;4958961;29;20025;-69
2023/10/02 07:48:36;;;;;;;4.18;2.42;;;;;;;;;;4958966;29;20031;-69
2023/10/02 07:51:06;;;;;;;3.63;2.22;;;;;;;;;;4958860;29;20065;-68
2023/10/02 07:53:41;;;;;;;4.20;2.40;;;;;;;;;;4958531;28;20035;-68
2023/10/02 07:56:14;;;;;;;2.25;1.92;;;;;;;;;;4959035;28;20035;-68
2023/10/02 07:58:54;;;;;;;2.42;1.95;;;;;;;;;;4955362;28;20035;-70
2023/10/02 08:01:23;;;;;;;4.18;2.42;;;;;;;;;;4955696;29;20159;-69
2023/10/02 08:03:49;;;;;;;2.58;2.00;;;;;;;;;;4955118;29;20034;-70
2023/10/02 08:06:23;;;;;;;4.68;2.45;;;;;;;;;;4955526;29;20039;-69
2023/10/02 08:11:41;;;;;;;5.60;2.33;;;;;;;;;;4944339;29;20090;-70
2023/10/02 08:14:34;;;;;;;3.00;2.22;;;;;;;;;;4946089;28;20384;-69
2023/10/02 08:17:00;;;;;;;5.68;2.33;;;;;;;;;;4951675;29;20739;-69
2023/10/02 08:19:28;;;;;;;5.93;2.15;;;;;;;;;;4955493;29;20035;-69
2023/10/02 08:21:53;;;;;;;5.93;2.20;;;;;;;;;;4955074;29;20141;-70
2023/10/02 08:24:19;;;;;;;7.03;2.30;;;;;;;;;;4955319;29;20091;-70
2023/10/02 08:26:45;;;;;;;6.50;2.30;;;;;;;;;;4954979;29;20543;-69
2023/10/02 08:29:15;;;;;;;5.10;2.42;;;;;;;;;;4950930;28;20393;-70
2023/10/02 08:31:46;;;;;;;;;;;;;;;;;;4943719;29;20126;-67
2023/10/02 08:34:26;;;;;;;3.47;2.25;;;;;;;;;;4949729;29;19918;-69
2023/10/02 08:37:05;;;;;;;2.63;2.00;;;;;;;;;;4954797;29;20031;-70
2023/10/02 08:39:40;;;;;;;4.47;2.53;;;;;;;;;;4955167;29;20369;-70
2023/10/02 08:42:10;;;;;;;5.10;2.22;;;;;;;;;;4947733;28;20031;-69
2023/10/02 08:44:43;;;;;;;2.83;2.20;;;;;;;;;;4943423;29;20106;-70
2023/10/02 08:47:12;;;;;;;5.50;2.22;;;;;;;;;;4939231;29;20063;-70
2023/10/02 08:49:41;;;;;;;4.53;2.47;;;;;;;;;;4944511;28;20034;-70
2023/10/02 08:52:13;;;;;;;4.63;2.28;;;;;;;;;;4954759;29;20039;-69
2023/10/02 08:54:41;;;;;;;5.75;2.47;;;;;;;;;;4945337;28;20376;-69
2023/10/02 08:57:12;;;;;;;4.90;2.20;;;;;;;;;;4935271;29;20027;-68
2023/10/02 08:59:41;;;;;;;3.25;2.28;;;;;;;;;;4941787;28;20111;-69
2023/10/02 09:02:16;;;;;;;2.72;2.17;;;;;;;;;;4944286;29;20035;-69
2023/10/02 09:05:06;;;;;;;3.88;2.40;;;;;;;;;;4953297;29;20047;-69
2023/10/02 09:10:28;;;;;;;9.02;2.03;;;;;;;;;;4953579;28;19969;-67
2023/10/02 09:13:24;;;;;;;2.92;2.00;;;;;;;;;;4954180;29;20435;-68
2023/10/02 09:15:54;;;;;;;4.30;2.50;;;;;;;;;;4948736;29;20036;-68
2023/10/02 09:19:28;;;;;;;3.55;2.30;;;;;;;;;;4935053;29;20030;-67
2023/10/02 09:21:40;;;;;;;5.82;2.13;;;;;;;;;;4926802;28;20416;-68
2023/10/02 09:24:19;;;;;;;11.85;2.30;;;;;;;;;;4934934;29;20103;-67
2023/10/02 09:26:45;;;;;;;5.30;2.25;;;;;;;;;;4934792;29;20028;-68
2023/10/02 09:29:16;;;;;;;2.97;2.20;;;;;;;;;;4942166;28;20032;-68
2023/10/02 09:31:43;;;;;;;4.72;2.20;;;;;;;;;;4947756;28;20167;-69
2023/10/02 09:34:11;;;;;;;4.90;2.30;;;;;;;;;;4953822;29;20032;-68
2023/10/02 09:36:48;;;;;;;5.03;2.17;;;;;;;;;;4946439;29;20030;-68
2023/10/02 09:39:32;;;;;;;9.65;2.50;;;;;;;;;;4934991;29;20023;-67
2023/10/02 09:42:07;;;;;;;6.43;2.38;;;;;;;;;;4936029;28;20032;-67
2023/10/02 09:44:40;;;;;;;8.98;2.40;;;;;;;;;;4934733;29;20024;-67
2023/10/02 09:47:08;;;;;;;4.28;2.60;;;;;;;;;;4934422;29;20518;-67
2023/10/02 09:49:42;;;;;;;4.35;2.15;;;;;;;;;;4934467;29;20032;-67
2023/10/02 09:52:17;;;;;;;4.50;2.10;;;;;;;;;;4934277;29;20066;-67
2023/10/02 09:55:03;;;;;;;4.07;2.45;;;;;;;;;;4934646;29;20024;-66
2023/10/02 09:57:34;;;;;;;4.68;2.72;;;;;;;;;;4934228;29;20031;-68
2023/10/02 10:00:34;;;;;;;6.03;2.50;;;;;;;;;;4934283;29;20036;-68
2023/10/02 10:03:32;;;;;;;4.82;2.55;;;;;;;;;;4939277;28;20048;-67
2023/10/02 10:06:27;;;;;;;8.88;2.40;;;;;;;;;;4933802;29;20039;-66
2023/10/02 10:14:37;;;;;;;7.95;2.30;;;;;;;;;;4934302;29;20045;-67
2023/10/02 10:17:49;;;;;;;3.83;2.17;;;;;;;;;;4933977;29;20102;-67
2023/10/02 10:20:25;;;;;;;5.80;2.30;;;;;;;;;;4933184;29;20134;-68
2023/10/02 10:22:51;;;;;;;4.63;2.17;;;;;;;;;;4933817;29;20501;-68
2023/10/02 10:28:08;;;;;;;5.38;2.30;;;;;;;;;;4940239;28;20038;-68
2023/10/02 10:30:39;;;;;;;5.15;2.05;;;;;;;;;;4941270;28;20484;-69
2023/10/02 10:35:34;;;;;;;4.05;2.15;;;;;;;;;;4936745;28;20608;-66
2023/10/02 10:38:28;;;;;;;2.63;2.08;;;;;;;;;;4933741;29;20048;-67
2023/10/02 10:41:06;;;;;;;3.38;1.95;;;;;;;;;;4943930;28;20034;-68
2023/10/02 10:43:44;;;;;;;5.13;2.13;;;;;;;;;;4953217;28;20047;-69
2023/10/02 10:46:31;;;;;;;5.00;2.58;;;;;;;;;;4941698;29;20042;-67
2023/10/02 10:51:52;;;;;;;3.03;2.08;;;;;;;;;;4935783;29;20379;-69
2023/10/02 10:59:45;;;;;;;2.78;1.85;;;;;;;;;;4937074;29;20416;-67
2023/10/02 11:02:17;;;;;;;3.75;2.00;;;;;;;;;;4934660;28;20031;-66
2023/10/02 11:04:49;;;;;;;3.67;2.30;;;;;;;;;;4933524;29;20180;-68
2023/10/02 11:07:25;;;;;;;3.30;2.28;;;;;;;;;;4937953;28;20031;-68
2023/10/02 11:12:57;;;;;;;2.97;2.22;;;;;;;;;;4943500;29;20071;-67
2023/10/02 11:15:57;;;;;;;3.95;2.03;;;;;;;;;;4952770;29;20122;-68
2023/10/02 11:18:20;;;;;;;4.85;2.25;;;;;;;;;;4951958;29;20043;-68
2023/10/02 11:20:50;;;;;;;5.32;2.50;;;;;;;;;;4952247;29;20047;-68
2023/10/02 11:23:45;;;;;;;2.15;1.85;;;;;;;;;;4952617;29;20032;-68
2023/10/02 11:26:12;;;;;;;4.60;2.10;;;;;;;;;;4952303;29;20035;-67
2023/10/02 11:28:39;;;;;;;3.65;2.45;;;;;;;;;;4943426;29;20028;-70
2023/10/02 11:31:30;;;;;;;4.10;2.05;;;;;;;;;;4943859;28;20036;-66
2023/10/02 11:34:08;;;;;;;3.72;2.35;;;;;;;;;;4953822;29;20074;-66
2023/10/02 11:36:35;;;;;;;3.47;2.10;;;;;;;;;;4955992;29;20037;-66
2023/10/02 11:39:09;;;;;;;4.03;1.80;;;;;;;;;;4954906;29;20108;-66
2023/10/02 11:41:38;;;;;;;4.75;2.30;;;;;;;;;;4954982;29;20028;-66
2023/10/02 11:44:06;;;;;;;5.65;2.03;;;;;;;;;;4956284;29;20420;-66
2023/10/02 11:46:32;;;;;;;3.70;2.35;;;;;;;;;;4955385;29;20514;-66
2023/10/02 11:48:58;;;;;;;6.15;2.08;;;;;;;;;;4955746;29;20035;-66
2023/10/02 11:51:28;;;;;;;6.80;2.35;;;;;;;;;;4955416;29;20027;-66
2023/10/02 11:54:08;;;;;;;4.28;2.33;;;;;;;;;;4955666;29;20035;-66
2023/10/02 11:56:35;;;;;;;5.75;2.28;;;;;;;;;;4955674;29;20039;-67
2023/10/02 11:59:02;;;;;;;5.95;2.40;;;;;;;;;;4955449;29;20073;-66
2023/10/02 12:01:28;;;;;;;4.15;2.83;;;;;;;;;;4955334;29;20035;-66
2023/10/02 12:03:57;;;;;;;3.75;2.25;;;;;;;;;;4955338;29;20032;-66
2023/10/02 12:06:26;;;;;;;4.07;2.38;;;;;;;;;;4955485;29;20043;-66
2023/10/02 12:08:56;;;;;;;2.97;2.08;;;;;;;;;;4955295;29;20035;-66
2023/10/02 12:11:24;;;;;;;3.28;2.17;;;;;;;;;;4955288;29;20038;-66
2023/10/02 12:13:51;;;;;;;2.67;2.03;;;;;;;;;;4955366;29;20027;-66
2023/10/02 12:16:18;;;;;;;3.33;2.22;;;;;;;;;;4955140;29;20110;-67
2023/10/02 12:18:43;;;;;;;2.90;2.15;;;;;;;;;;4955386;29;20114;-67
2023/10/02 12:21:11;;;;;;;3.58;2.03;;;;;;;;;;4954829;29;20118;-66
2023/10/02 12:23:43;;;;;;;3.25;2.30;;;;;;;;;;4954952;29;20044;-67
2023/10/02 12:26:24;;;;;;;3.33;2.00;;;;;;;;;;4955106;29;20038;-67
2023/10/02 12:28:50;;;;;;;2.83;2.13;;;;;;;;;;4954874;29;20026;-67
2023/10/02 12:31:19;;;;;;;2.92;2.20;;;;;;;;;;4954865;29;20027;-66
2023/10/02 12:33:45;;;;;;;3.70;1.95;;;;;;;;;;4955051;29;20043;-66
2023/10/02 12:36:18;;;;;;;2.80;1.90;;;;;;;;;;4954995;29;20426;-66
2023/10/02 12:38:45;;;;;;;4.47;2.38;;;;;;;;;;4954816;29;20135;-66
2023/10/02 12:41:14;;;;;;;2.38;2.00;;;;;;;;;;4954916;29;20090;-68
2023/10/02 12:43:42;;;;;;;3.05;2.17;;;;;;;;;;4954221;28;20120;-67
2023/10/02 12:46:08;;;;;;;3.38;2.42;;;;;;;;;;4954508;29;20111;-67
2023/10/02 12:48:34;;;;;;;3.30;2.30;;;;;;;;;;4954738;29;20114;-66
2023/10/02 12:51:09;;;;;;;2.75;2.20;;;;;;;;;;4954453;29;20507;-66
2023/10/02 12:53:37;;;;;;;2.42;2.03;;;;;;;;;;4954561;29;20527;-66
2023/10/02 12:56:10;;;;;;;5.93;2.20;;;;;;;;;;4954316;29;20505;-66
2023/10/02 12:58:38;;;;;;;3.30;2.20;;;;;;;;;;4954700;29;20081;-66
2023/10/02 13:01:04;;;;;;;2.00;1.80;;;;;;;;;;4954669;29;20078;-66
2023/10/02 13:03:31;;;;;;;2.70;1.92;;;;;;;;;;4954179;29;20038;-66
2023/10/02 13:05:58;;;;;;;3.28;2.20;;;;;;;;;;4954260;29;20050;-66
2023/10/02 13:08:27;;;;;;;3.38;2.40;;;;;;;;;;4954195;29;20034;-66
2023/10/02 13:10:53;;;;;;;2.63;2.03;;;;;;;;;;4954136;28;20119;-66
2023/10/02 13:13:20;;;;;;;3.67;2.50;;;;;;;;;;4954317;29;20387;-66
2023/10/02 13:15:48;;;;;;;3.17;2.10;;;;;;;;;;4954089;29;20078;-66
2023/10/02 13:18:15;;;;;;;3.00;2.25;;;;;;;;;;4953810;29;20031;-66
2023/10/02 13:20:40;;;;;;;3.55;2.00;;;;;;;;;;4953824;29;20114;-66
2023/10/02 13:23:06;;;;;;;3.38;2.47;;;;;;;;;;4953935;29;20146;-66
2023/10/02 13:25:31;;;;;;;2.95;2.05;;;;;;;;;;4954114;29;20062;-66
2023/10/02 13:27:59;;;;;;;3.17;2.00;;;;;;;;;;4954084;29;20433;-66
2023/10/02 13:30:30;;;;;;;2.88;2.38;;;;;;;;;;4954012;29;20039;-67
2023/10/02 13:32:56;;;;;;;2.20;1.95;;;;;;;;;;4953690;29;20027;-66
2023/10/02 13:35:25;;;;;;;2.72;2.08;;;;;;;;;;4953636;29;20027;-66
2023/10/02 13:37:52;;;;;;;3.75;2.25;;;;;;;;;;4953731;29;20085;-66
2023/10/02 13:40:18;;;;;;;2.97;1.98;;;;;;;;;;4953387;29;20039;-66
2023/10/02 13:42:49;;;;;;;3.28;2.10;;;;;;;;;;4933985;29;20027;-66
2023/10/02 13:45:18;;;;;;;3.63;2.40;;;;;;;;;;4943007;29;20029;-65
2023/10/02 13:47:47;;;;;;;3.13;2.10;;;;;;;;;;4934561;29;20050;-65
2023/10/02 13:50:13;;;;;;;3.20;2.00;;;;;;;;;;4941679;28;20046;-66
2023/10/02 13:52:39;;;;;;;5.25;2.80;;;;;;;;;;4934348;29;20484;-65
2023/10/02 13:55:19;;;;;;;3.30;2.40;;;;;;;;;;4937108;28;20035;-66
2023/10/02 13:57:49;;;;;;;5.93;2.90;;;;;;;;;;4934085;29;20032;-66
2023/10/02 14:00:20;;;;;;;4.97;2.30;;;;;;;;;;4934033;29;20028;-67
2023/10/02 14:02:49;;;;;;;3.45;2.35;;;;;;;;;;4937732;28;20034;-66
2023/10/02 14:05:15;;;;;;;10.82;2.83;;;;;;;;;;4933984;29;20051;-66
2023/10/02 14:07:44;;;;;;;5.88;3.03;;;;;;;;;;4933949;29;20035;-66
2023/10/02 14:10:13;;;;;;;8.63;2.97;;;;;;;;;;4933968;29;20024;-66
2023/10/02 14:12:42;;;;;;;3.78;2.80;;;;;;;;;;4934040;29;20712;-68
2023/10/02 14:15:16;;;;;;;5.03;2.70;;;;;;;;;;4934157;29;20461;-66
2023/10/02 14:17:51;;;;;;;4.50;2.80;;;;;;;;;;4933863;29;20052;-65
2023/10/02 14:20:18;;;;;;;8.35;2.92;;;;;;;;;;4934051;29;20024;-66
2023/10/02 14:22:50;;;;;;;7.55;2.65;;;;;;;;;;4933462;29;20138;-66
2023/10/02 14:25:16;;;;;;;4.82;2.70;;;;;;;;;;4933770;29;20083;-66
2023/10/02 14:27:45;;;;;;;5.38;2.80;;;;;;;;;;4935102;29;20027;-66
2023/10/02 14:30:12;;;;;;;5.25;2.70;;;;;;;;;;4939548;28;20024;-66
2023/10/02 14:32:40;;;;;;;3.95;2.70;;;;;;;;;;4942495;28;20038;-66
2023/10/02 14:35:07;;;;;;;5.38;2.97;;;;;;;;;;4954363;29;20488;-66
2023/10/02 14:37:33;;;;;;;4.90;3.10;;;;;;;;;;4954380;29;20039;-67
2023/10/02 14:40:00;;;;;;;5.03;3.00;;;;;;;;;;4952953;28;20030;-65
2023/10/02 14:42:26;;;;;;;8.25;3.00;;;;;;;;;;4954284;29;20046;-67
2023/10/02 14:44:52;;;;;;;5.68;2.97;;;;;;;;;;4954364;29;20023;-66
2023/10/02 14:47:18;;;;;;;7.20;2.95;;;;;;;;;;4954268;29;20106;-65
2023/10/02 14:49:44;;;;;;;7.50;2.90;;;;;;;;;;4954204;29;20082;-68
2023/10/02 14:52:10;;;;;;;7.30;3.05;;;;;;;;;;4951885;28;20041;-68
2023/10/02 14:54:36;;;;;;;6.20;3.15;;;;;;;;;;4935342;29;20114;-65
2023/10/02 14:57:01;;;;;;;3.88;3.05;;;;;;;;;;4935170;29;20032;-66
2023/10/02 14:59:29;;;;;;;6.68;3.28;;;;;;;;;;4954187;29;20074;-64
2023/10/02 15:01:55;;;;;;;8.98;3.30;;;;;;;;;;4953812;29;20035;-63
2023/10/02 15:04:23;;;;;;;6.90;3.10;;;;;;;;;;4953971;29;20075;-64
2023/10/02 15:06:49;;;;;;;5.15;2.92;;;;;;;;;;4954663;28;20118;-63
2023/10/02 15:09:22;;;;;;;4.53;3.00;;;;;;;;;;4957319;29;20078;-63
2023/10/02 15:11:48;;;;;;;6.63;2.80;;;;;;;;;;4957309;29;20090;-63
2023/10/02 15:14:14;;;;;;;8.82;3.47;;;;;;;;;;4958021;29;20027;-69
2023/10/02 15:16:40;;;;;;;9.02;2.70;;;;;;;;;;4958116;29;20050;-63
2023/10/02 15:19:06;;;;;;;8.25;3.63;;;;;;;;;;4957854;29;20027;-63
2023/10/02 15:21:32;;;;;;;9.55;3.40;;;;;;;;;;4957483;29;20051;-63
2023/10/02 15:23:59;;;;;;;8.13;3.72;;;;;;;;;;4957684;29;20023;-68
2023/10/02 15:26:25;;;;;;;9.93;4.57;;;;;;;;;;4957566;29;20034;-62
2023/10/02 15:28:50;;;;;;;8.35;4.70;;;;;;;;;;4957614;29;20027;-63
2023/10/02 15:31:18;;;;;;;7.25;3.38;;;;;;;;;;4957521;29;20034;-63
2023/10/02 15:33:43;;;;;;;12.95;3.33;;;;;;;;;;4957468;29;20369;-67
2023/10/02 15:36:11;;;;;;;8.15;3.53;;;;;;;;;;4957748;29;20034;-63
2023/10/02 15:38:37;;;;;;;6.82;3.13;;;;;;;;;;4957389;29;20464;-64
2023/10/02 15:41:03;;;;;;;5.53;3.20;;;;;;;;;;4957477;29;20066;-65
2023/10/02 15:43:29;;;;;;;9.50;3.42;;;;;;;;;;4957373;28;20084;-64
2023/10/02 15:45:58;;;;;;;9.52;3.58;;;;;;;;;;4957394;29;20031;-64
2023/10/02 15:48:23;;;;;;;7.32;3.25;;;;;;;;;;4957456;29;20027;-64
2023/10/02 15:50:49;;;;;;;7.63;3.22;;;;;;;;;;4957055;29;20054;-64
2023/10/02 15:53:15;;;;;;;6.30;3.50;;;;;;;;;;4957108;29;20113;-64
2023/10/02 15:55:40;;;;;;;6.65;3.42;;;;;;;;;;4957308;29;20035;-64
2023/10/02 15:58:08;;;;;;;5.13;3.17;;;;;;;;;;4957214;29;20361;-64
2023/10/02 16:00:33;;;;;;;7.68;3.63;;;;;;;;;;4957059;29;20055;-63
2023/10/02 16:03:01;;;;;;;7.88;3.42;;;;;;;;;;4957068;29;20066;-65
2023/10/02 16:05:32;;;;;;;8.88;3.60;;;;;;;;;;4957296;29;20023;-64
2023/10/02 16:07:59;;;;;;;8.90;3.47;;;;;;;;;;4956923;29;20106;-65
2023/10/02 16:10:26;;;;;;;5.90;3.45;;;;;;;;;;4956890;29;20023;-64
2023/10/02 16:12:53;;;;;;;6.60;3.38;;;;;;;;;;4956738;29;20035;-64
2023/10/02 16:15:19;;;;;;;8.23;3.28;;;;;;;;;;4956530;29;20030;-65
2023/10/02 16:17:47;;;;;;;8.68;3.15;;;;;;;;;;4956977;29;20035;-65
2023/10/02 16:20:14;;;;;;;12.50;3.45;;;;;;;;;;4956065;28;20027;-64
2023/10/02 16:22:48;;;;;;;6.90;2.80;;;;;;;;;;4956422;29;20063;-64
2023/10/02 16:25:17;;;;;;;8.70;3.10;;;;;;;;;;4956914;29;20102;-64
2023/10/02 16:27:45;;;;;;;12.05;3.63;;;;;;;;;;4956535;29;20031;-63
2023/10/02 16:30:12;;;;;;;10.30;3.17;;;;;;;;;;4956469;29;20034;-64
2023/10/02 16:32:48;;;;;;;7.90;3.42;;;;;;;;;;4956505;29;20094;-64
2023/10/02 16:35:14;;;;;;;10.50;3.53;;;;;;;;;;4956453;29;20062;-64
2023/10/02 16:37:40;;;;;;;27.63;5.13;;;;;;;;;;4956264;29;20035;-64
2023/10/02 16:40:08;;;;;;;8.70;3.05;;;;;;;;;;4956266;29;20028;-66
2023/10/02 16:42:36;;;;;;;11.65;3.72;;;;;;;;;;4956292;29;20534;-64
2023/10/02 16:45:02;;;;;;;12.45;3.60;;;;;;;;;;4956202;29;20028;-64
2023/10/02 16:47:28;;;;;;;17.10;4.18;;;;;;;;;;4956536;29;20027;-64
2023/10/02 16:49:55;;;;;;;17.08;4.18;;;;;;;;;;4956462;28;20042;-66
2023/10/02 16:52:20;;;;;;;15.13;4.78;;;;;;;;;;4955952;29;20067;-64
2023/10/02 16:54:49;;;;;;;12.30;4.30;;;;;;;;;;4956217;29;20079;-64
2023/10/02 16:57:14;;;;;;;30.45;4.45;;;;;;;;;;4955953;29;20499;-64
2023/10/02 16:59:41;;;;;;;13.68;3.80;;;;;;;;;;4955818;29;20027;-65
2023/10/02 17:02:06;;;;;;;10.70;3.78;;;;;;;;;;4955886;29;20035;-66
2023/10/02 17:04:32;;;;;;;6.50;3.72;;;;;;;;;;4955956;29;20027;-64
2023/10/02 17:06:58;;;;;;;11.50;3.92;;;;;;;;;;4955552;29;20604;-64
2023/10/02 17:09:26;;;;;;;12.00;4.28;;;;;;;;;;4955814;29;20035;-66
2023/10/02 17:11:52;;;;;;;8.75;4.32;;;;;;;;;;4955545;29;20024;-64
2023/10/02 17:14:18;;;;;;;7.60;3.92;;;;;;;;;;4955611;29;20038;-67
2023/10/02 17:16:43;;;;;;;54.78;5.28;;;;;;;;;;4955603;29;20042;-66
2023/10/02 17:19:09;;;;;;;12.25;4.60;;;;;;;;;;4955803;29;20034;-64
2023/10/02 17:21:35;;;;;;;9.90;3.97;;;;;;;;;;4955576;29;20042;-64
2023/10/02 17:24:01;;;;;;;9.90;3.90;;;;;;;;;;4955695;29;20043;-65
2023/10/02 17:26:27;;;;;;;18.95;4.57;;;;;;;;;;4955719;29;20059;-66
2023/10/02 17:28:54;;;;;;;10.40;4.28;;;;;;;;;;4955507;29;20527;-66
2023/10/02 17:31:26;;;;;;;8.20;3.83;;;;;;;;;;4955340;28;20401;-66
2023/10/02 17:33:52;;;;;;;13.30;4.00;;;;;;;;;;4955300;29;20094;-66
2023/10/02 17:36:18;;;;;;;10.57;3.60;;;;;;;;;;4955620;29;20028;-67
2023/10/02 17:38:43;;;;;;;6.47;3.60;;;;;;;;;;4955544;28;20499;-66
2023/10/02 17:41:09;;;;;;;9.57;3.92;;;;;;;;;;4955279;29;20074;-66
2023/10/02 17:43:34;;;;;;;10.02;4.10;;;;;;;;;;4955329;29;20536;-66
2023/10/02 17:46:00;;;;;;;11.60;4.53;;;;;;;;;;4955224;29;20047;-66
2023/10/02 17:48:25;;;;;;;14.75;4.40;;;;;;;;;;4955062;29;20464;-66
2023/10/02 17:50:52;;;;;;;14.75;4.60;;;;;;;;;;4955248;29;20035;-65
2023/10/02 17:53:18;;;;;;;19.85;4.45;;;;;;;;;;4955175;29;20114;-65
2023/10/02 17:55:43;;;;;;;12.73;3.97;;;;;;;;;;4955277;29;20449;-66
2023/10/02 17:58:09;;;;;;;8.50;3.70;;;;;;;;;;4955031;29;20038;-65
2023/10/02 18:00:35;;;;;;;6.72;3.55;;;;;;;;;;4954805;29;20069;-64
2023/10/02 18:03:02;;;;;;;11.48;3.90;;;;;;;;;;4954684;29;20038;-67
2023/10/02 18:05:28;;;;;;;11.90;4.15;;;;;;;;;;4954676;29;20023;-65
2023/10/02 18:07:54;;;;;;;7.15;3.97;;;;;;;;;;4954652;29;20499;-66
2023/10/02 18:10:23;;;;;;;8.73;4.20;;;;;;;;;;4954623;29;20030;-67
2023/10/02 18:12:49;;;;;;;10.95;4.32;;;;;;;;;;4954556;29;20513;-66
2023/10/02 18:15:17;;;;;;;7.00;3.90;;;;;;;;;;4954683;29;20468;-65
2023/10/02 18:17:43;;;;;;;9.02;3.95;;;;;;;;;;4954683;29;20062;-70
2023/10/02 18:20:11;;;;;;;12.00;3.95;;;;;;;;;;4954551;29;20032;-66
2023/10/02 18:22:37;;;;;;;9.13;3.88;;;;;;;;;;4954423;29;20039;-66
2023/10/02 18:25:03;;;;;;;7.07;3.88;;;;;;;;;;4954422;29;20023;-68
2023/10/02 18:27:30;;;;;;;7.28;4.25;;;;;;;;;;4954879;29;20469;-64
2023/10/02 18:29:57;;;;;;;6.40;4.03;;;;;;;;;;4950280;29;20031;-69
2023/10/02 18:32:22;;;;;;;7.03;3.53;;;;;;;;;;4942811;29;20078;-66
2023/10/02 18:34:48;;;;;;;9.05;4.03;;;;;;;;;;4943837;29;20416;-66
2023/10/02 18:37:14;;;;;;;5.30;3.35;;;;;;;;;;4943528;29;20443;-65
2023/10/02 18:39:39;;;;;;;10.25;4.07;;;;;;;;;;4944749;29;20523;-64
2023/10/02 18:42:05;;;;;;;9.10;3.70;;;;;;;;;;4942754;29;20030;-65
2023/10/02 18:44:34;;;;;;;5.65;3.40;;;;;;;;;;4944281;29;20103;-66
2023/10/02 18:47:00;;;;;;;7.13;3.50;;;;;;;;;;4943067;29;20492;-67
2023/10/02 18:49:25;;;;;;;10.48;4.00;;;;;;;;;;4943434;29;20019;-66
2023/10/02 18:51:51;;;;;;;5.90;3.70;;;;;;;;;;4943471;29;20048;-66
2023/10/02 18:54:17;;;;;;;5.75;3.60;;;;;;;;;;4943711;29;20030;-67
2023/10/02 18:56:43;;;;;;;6.75;3.55;;;;;;;;;;4942373;29;20086;-65
2023/10/02 18:59:09;;;;;;;10.15;3.88;;;;;;;;;;4934910;29;20115;-65
2023/10/02 19:01:38;;;;;;;6.57;3.50;;;;;;;;;;4934873;29;20476;-67
2023/10/02 19:04:05;;;;;;;6.05;3.45;;;;;;;;;;4934969;29;20043;-65
2023/10/02 19:06:32;;;;;;;4.20;3.15;;;;;;;;;;4934829;29;20083;-66
2023/10/02 19:08:58;;;;;;;8.05;3.92;;;;;;;;;;4934767;29;20536;-64
2023/10/02 19:11:25;;;;;;;7.97;3.40;;;;;;;;;;4934557;29;20111;-65
2023/10/02 19:13:52;;;;;;;7.18;3.45;;;;;;;;;;4934536;29;20079;-65
2023/10/02 19:16:19;;;;;;;7.30;3.60;;;;;;;;;;4934877;29;20031;-64
2023/10/02 19:18:49;;;;;;;6.38;3.38;;;;;;;;;;4934918;29;20388;-66
2023/10/02 19:21:15;;;;;;;7.95;3.95;;;;;;;;;;4934269;29;20055;-66
2023/10/02 19:23:41;;;;;;;14.48;4.20;;;;;;;;;;4935037;29;20035;-64
2023/10/02 19:26:07;;;;;;;10.60;3.70;;;;;;;;;;4935066;29;20099;-65
2023/10/02 19:28:33;;;;;;;27.42;5.05;;;;;;;;;;4934574;29;20059;-64
2023/10/02 19:30:59;;;;;;;24.05;4.40;;;;;;;;;;4935200;29;20414;-66
2023/10/02 19:33:28;;;;;;;27.88;4.38;;;;;;;;;;4934832;28;20034;-66
2023/10/02 19:35:57;;;;;;;17.95;4.40;;;;;;;;;;4934453;29;20053;-65
2023/10/02 19:38:23;;;;;;;12.32;3.83;;;;;;;;;;4935236;29;20118;-64
2023/10/02 19:40:49;;;;;;;16.42;4.45;;;;;;;;;;4952383;29;20091;-66
2023/10/02 19:43:15;;;;;;;10.25;3.70;;;;;;;;;;4953524;28;20055;-65
2023/10/02 19:45:41;;;;;;;10.38;3.50;;;;;;;;;;4953616;29;20039;-65
2023/10/02 19:48:06;;;;;;;9.95;3.22;;;;;;;;;;4953775;28;20038;-65
2023/10/02 19:50:33;;;;;;;8.43;3.40;;;;;;;;;;4951903;28;20045;-68
2023/10/02 19:52:58;;;;;;;15.40;3.55;;;;;;;;;;4938513;28;20031;-66
2023/10/02 19:55:24;;;;;;;7.10;3.53;;;;;;;;;;4943972;28;20047;-65
2023/10/02 19:57:53;;;;;;;9.23;3.38;;;;;;;;;;4954376;29;20033;-65
2023/10/02 20:00:19;;;;;;;10.73;3.63;;;;;;;;;;4956841;29;20102;-65
2023/10/02 20:02:45;;;;;;;7.63;3.42;;;;;;;;;;4950074;28;20388;-65
2023/10/02 20:05:12;;;;;;;11.75;4.00;;;;;;;;;;4938452;28;20028;-65
2023/10/02 20:07:41;;;;;;;8.65;3.58;;;;;;;;;;4944310;28;20033;-63
2023/10/02 20:10:08;;;;;;;10.27;3.40;;;;;;;;;;4945579;29;20023;-65
2023/10/02 20:12:38;;;;;;;7.60;3.17;;;;;;;;;;4946678;29;20407;-65
2023/10/02 20:15:06;;;;;;;10.18;3.40;;;;;;;;;;4945985;29;20383;-65
2023/10/02 20:17:31;;;;;;;9.77;3.50;;;;;;;;;;4946244;29;21043;-65
2023/10/02 20:20:08;;;;;;;10.77;3.15;;;;;;;;;;4945674;29;20019;-65
2023/10/02 20:22:36;;;;;;;9.82;3.38;;;;;;;;;;4951817;29;20051;-65
2023/10/02 20:25:07;;;;;;;5.75;3.20;;;;;;;;;;4956707;29;20035;-65
2023/10/02 20:27:36;;;;;;;12.02;3.42;;;;;;;;;;4940581;28;20035;-64
2023/10/02 20:30:03;;;;;;;6.40;3.15;;;;;;;;;;4938101;28;20040;-65
2023/10/02 20:32:29;;;;;;;7.63;3.13;;;;;;;;;;4937136;29;20032;-65
2023/10/02 20:34:54;;;;;;;5.13;3.00;;;;;;;;;;4937173;29;20035;-65
2023/10/02 20:37:20;;;;;;;11.57;3.90;;;;;;;;;;4937274;29;20032;-64
2023/10/02 20:39:47;;;;;;;7.35;2.95;;;;;;;;;;4920004;29;20425;-65
2023/10/02 20:42:14;;;;;;;7.38;3.50;;;;;;;;;;4937429;28;20472;-65
2023/10/02 20:44:40;;;;;;;6.85;3.17;;;;;;;;;;4937421;29;20020;-64
2023/10/02 20:47:05;;;;;;;5.35;3.10;;;;;;;;;;4937121;29;20384;-64
2023/10/02 20:49:32;;;;;;;9.38;3.00;;;;;;;;;;4937054;29;20493;-65
2023/10/02 20:51:59;;;;;;;7.10;3.28;;;;;;;;;;4936971;29;20071;-65
2023/10/02 20:54:24;;;;;;;6.90;3.10;;;;;;;;;;4937210;29;20030;-66
2023/10/02 20:56:50;;;;;;;13.52;3.00;;;;;;;;;;4936859;29;20028;-64
2023/10/02 20:59:18;;;;;;;8.23;3.28;;;;;;;;;;4937040;29;20038;-65
2023/10/02 21:01:45;;;;;;;7.10;3.25;;;;;;;;;;4947663;28;20023;-64
2023/10/02 21:04:10;;;;;;;6.70;2.88;;;;;;;;;;4955984;28;20102;-65
2023/10/02 21:06:36;;;;;;;7.72;3.05;;;;;;;;;;4955555;29;20107;-64
2023/10/02 21:09:02;;;;;;;5.82;3.10;;;;;;;;;;4955420;29;20027;-65
2023/10/02 21:11:28;;;;;;;7.00;3.17;;;;;;;;;;4954957;29;20114;-67
2023/10/02 21:13:54;;;;;;;8.13;3.50;;;;;;;;;;4955276;29;20115;-65
2023/10/02 21:16:20;;;;;;;6.00;3.22;;;;;;;;;;4955723;29;20055;-65
2023/10/02 21:18:46;;;;;;;6.55;3.17;;;;;;;;;;4955743;29;20055;-68
2023/10/02 21:21:16;;;;;;;6.25;2.97;;;;;;;;;;4955467;29;20043;-64
2023/10/02 21:23:42;;;;;;;5.30;3.05;;;;;;;;;;4955658;29;20043;-65
2023/10/02 21:26:07;;;;;;;6.13;3.35;;;;;;;;;;4955592;29;20163;-65
2023/10/02 21:28:33;;;;;;;5.05;3.00;;;;;;;;;;4955664;29;20226;-63
2023/10/02 21:31:00;;;;;;;8.15;3.20;;;;;;;;;;4955709;29;20023;-66
2023/10/02 21:33:26;;;;;;;6.43;2.90;;;;;;;;;;4955381;29;20094;-65
2023/10/02 21:36:05;;;;;;;8.25;3.53;;;;;;;;;;4955184;29;20034;-64
2023/10/02 21:38:32;;;;;;;6.00;3.05;;;;;;;;;;4955229;29;20028;-65
2023/10/02 21:41:19;;;;;;;9.32;3.38;;;;;;;;;;4955267;29;20505;-66
2023/10/02 21:43:46;;;;;;;6.57;3.60;;;;;;;;;;4955231;29;20035;-65
2023/10/02 21:46:12;;;;;;;7.10;3.38;;;;;;;;;;4954818;29;20038;-65
2023/10/02 21:48:38;;;;;;;10.35;3.70;;;;;;;;;;4954914;29;20027;-64
2023/10/02 21:51:05;;;;;;;9.55;3.85;;;;;;;;;;4954769;29;20035;-67
2023/10/02 21:53:34;;;;;;;8.82;3.67;;;;;;;;;;4954895;29;20040;-65
2023/10/02 21:56:03;;;;;;;6.57;3.60;;;;;;;;;;4954752;29;20115;-65
2023/10/02 21:58:28;;;;;;;6.90;3.50;;;;;;;;;;4954664;29;20536;-66
2023/10/02 22:01:01;;;;;;;6.72;3.60;;;;;;;;;;4954694;29;20110;-65
2023/10/02 22:03:28;;;;;;;6.22;3.20;;;;;;;;;;4954833;29;20034;-65
2023/10/02 22:05:54;;;;;;;6.93;3.35;;;;;;;;;;4955013;29;20028;-66
2023/10/02 22:08:19;;;;;;;7.43;3.40;;;;;;;;;;4954865;29;20034;-66
2023/10/02 22:10:45;;;;;;;7.68;3.63;;;;;;;;;;4954726;29;20027;-66
2023/10/02 22:13:12;;;;;;;8.82;3.42;;;;;;;;;;4954658;29;20078;-65
2023/10/02 22:15:39;;;;;;;7.00;3.33;;;;;;;;;;4955073;29;20036;-66
2023/10/02 22:18:09;;;;;;;9.32;3.78;;;;;;;;;;4954248;28;20031;-67
2023/10/02 22:20:42;;;;;;;8.45;4.07;;;;;;;;;;4954474;29;20480;-65
2023/10/02 22:23:08;;;;;;;7.18;3.80;;;;;;;;;;4954965;29;20035;-65
2023/10/02 22:25:37;;;;;;;6.20;3.33;;;;;;;;;;4954779;29;20047;-66
2023/10/02 22:28:04;;;;;;;11.65;3.63;;;;;;;;;;4954773;29;20027;-66
2023/10/02 22:30:31;;;;;;;6.65;3.60;;;;;;;;;;4954639;29;20062;-65
2023/10/02 22:32:57;;;;;;;5.97;3.20;;;;;;;;;;4954682;29;20064;-64